Valdivia, Valdivia Pichoy Airport (SCVD)

NameValdivia Pichoy Airport
CityValdivia
CountryChile
ICAOSCVD
IATAZAL
Altitude18 m
CoordinatesGoogle Map
Live Air TrafficLiveATC.net
METARSCVD 170800Z AUTO 13002KT 0350 R35/0500D FG VV001 M01/M01 Q1019
2019-06-17 08:00:00 Wind: East-Southeast (130°) 1.03 m/s - Visibility: 350 m - Weather: Fog - Temperature: -1 °C - Dew point: -1 °C - Humidity: 100% - Pressure: 1019 hPa
Statistics

The table below shows the detailed information of all flights to/from Valdivia, Valdivia Pichoy Airport (SCVD).

Ident Aircraft Coming fromFrom Going toTo Owner nameOwnerDate
CC-BFB - A320 - LATAM Chile LXP240 AIRBUS A-320 A320 Valdivia, Chile (SCVD) SCVD
597 km
Santiago, Chile (SCEL) SCEL
129 km
Tenca Leasing Limited Tenca Leasing Limited Thu, 13 Jun 2019 19:47:40 +0000 13/6/2019 7:47 pm
JA318J - B738 - JetSMART JA241 BOEING 737-800 B738 Santiago, Chile (SCEL) SCEL
17716 km
Valdivia, Chile (SCVD) SCVD
17552 km
Japan Airlines Japan Airlines Wed, 12 Jun 2019 11:51:44 +0000 12/6/2019 11:51 am
CC-BAZ - A320 - LATAM Chile LXP242 AIRBUS A-320 A320 Valdivia, Chile (SCVD) SCVD
748 km
Santiago, Chile (SCEL) SCEL
23 km
Tenca Leasing Limited Tenca Leasing Limited Sun, 26 May 2019 21:43:34 +0000 26/5/2019 9:43 pm
CC-BFF - A320 - LATAM Chile LXP241 AIRBUS A-320 A320 Santiago, Chile (SCEL) SCEL
349 km
Valdivia, Chile (SCVD) SCVD
378 km
Tenca Leasing Limited Tenca Leasing Limited Wed, 08 May 2019 18:13:36 +0000 8/5/2019 6:13 pm